sensor_id;sensor_type;location;lat;lon;timestamp;P1;durP1;ratioP1;P2;durP2;ratioP2
63114;SDS011;49208;50.874;6.466;2023-07-13T06:03:25;6.18;;;1.95;;
63114;SDS011;49208;50.874;6.466;2023-07-13T06:05:51;9.32;;;2.60;;
63114;SDS011;49208;50.874;6.466;2023-07-13T06:08:16;7.93;;;1.80;;
63114;SDS011;49208;50.874;6.466;2023-07-13T06:10:41;8.27;;;2.38;;
63114;SDS011;49208;50.874;6.466;2023-07-13T06:13:07;8.02;;;2.10;;
63114;SDS011;49208;50.874;6.466;2023-07-13T06:15:32;6.28;;;2.00;;
63114;SDS011;49208;50.874;6.466;2023-07-13T06:17:58;4.57;;;1.80;;
63114;SDS011;49208;50.874;6.466;2023-07-13T06:20:23;6.78;;;1.58;;
63114;SDS011;49208;50.874;6.466;2023-07-13T06:22:49;9.63;;;1.52;;
63114;SDS011;49208;50.874;6.466;2023-07-13T06:25:14;4.93;;;1.63;;
63114;SDS011;49208;50.874;6.466;2023-07-13T06:27:39;10.13;;;1.83;;
63114;SDS011;49208;50.874;6.466;2023-07-13T06:30:05;8.30;;;2.10;;
63114;SDS011;49208;50.874;6.466;2023-07-13T06:32:31;5.32;;;1.70;;
63114;SDS011;49208;50.874;6.466;2023-07-13T06:34:56;4.80;;;1.73;;
63114;SDS011;49208;50.874;6.466;2023-07-13T06:37:21;7.77;;;1.80;;
63114;SDS011;49208;50.874;6.466;2023-07-13T06:39:47;6.20;;;1.77;;
63114;SDS011;49208;50.874;6.466;2023-07-13T06:42:12;5.57;;;1.67;;
63114;SDS011;49208;50.874;6.466;2023-07-13T06:44:37;7.33;;;2.47;;
63114;SDS011;49208;50.874;6.466;2023-07-13T06:47:03;7.53;;;2.20;;
63114;SDS011;49208;50.874;6.466;2023-07-13T06:49:28;5.80;;;1.70;;
63114;SDS011;49208;50.874;6.466;2023-07-13T06:51:54;6.90;;;1.83;;
63114;SDS011;49208;50.874;6.466;2023-07-13T06:54:19;9.63;;;2.40;;
63114;SDS011;49208;50.874;6.466;2023-07-13T06:56:45;6.50;;;1.67;;
63114;SDS011;49208;50.874;6.466;2023-07-13T06:59:10;6.90;;;2.07;;
63114;SDS011;49208;50.874;6.466;2023-07-13T07:01:36;5.97;;;2.00;;
63114;SDS011;49208;50.874;6.466;2023-07-13T07:04:01;6.53;;;2.00;;
63114;SDS011;49208;50.874;6.466;2023-07-13T07:06:27;9.48;;;2.30;;
63114;SDS011;49208;50.874;6.466;2023-07-13T07:08:53;6.65;;;2.25;;
63114;SDS011;49208;50.874;6.466;2023-07-13T07:11:20;7.63;;;2.25;;
63114;SDS011;49208;50.874;6.466;2023-07-13T07:13:50;8.90;;;2.30;;
63114;SDS011;49208;50.874;6.466;2023-07-13T07:16:16;7.03;;;2.72;;
63114;SDS011;49208;50.874;6.466;2023-07-13T07:18:43;10.48;;;2.88;;
63114;SDS011;49208;50.874;6.466;2023-07-13T07:21:09;10.70;;;3.05;;
63114;SDS011;49208;50.874;6.466;2023-07-13T07:23:35;9.20;;;2.70;;
63114;SDS011;49208;50.874;6.466;2023-07-13T07:26:00;5.47;;;2.33;;
63114;SDS011;49208;50.874;6.466;2023-07-13T07:28:26;6.88;;;2.20;;
63114;SDS011;49208;50.874;6.466;2023-07-13T07:30:53;8.43;;;2.40;;
63114;SDS011;49208;50.874;6.466;2023-07-13T07:33:20;5.78;;;2.13;;
63114;SDS011;49208;50.874;6.466;2023-07-13T07:35:45;6.65;;;2.00;;
63114;SDS011;49208;50.874;6.466;2023-07-13T07:38:11;9.32;;;2.45;;
63114;SDS011;49208;50.874;6.466;2023-07-13T07:40:40;6.22;;;2.58;;
63114;SDS011;49208;50.874;6.466;2023-07-13T07:43:09;6.47;;;2.75;;
63114;SDS011;49208;50.874;6.466;2023-07-13T07:45:36;10.35;;;2.90;;
63114;SDS011;49208;50.874;6.466;2023-07-13T07:48:02;6.85;;;2.28;;
63114;SDS011;49208;50.874;6.466;2023-07-13T07:50:29;7.30;;;2.70;;
63114;SDS011;49208;50.874;6.466;2023-07-13T07:52:55;5.88;;;2.38;;
63114;SDS011;49208;50.874;6.466;2023-07-13T07:55:24;7.07;;;2.28;;
63114;SDS011;49208;50.874;6.466;2023-07-13T07:57:53;6.07;;;2.28;;
63114;SDS011;49208;50.874;6.466;2023-07-13T08:00:18;7.03;;;2.08;;
63114;SDS011;49208;50.874;6.466;2023-07-13T08:02:44;8.88;;;2.20;;
63114;SDS011;49208;50.874;6.466;2023-07-13T08:05:10;7.55;;;2.55;;
63114;SDS011;49208;50.874;6.466;2023-07-13T08:07:39;7.50;;;2.00;;
63114;SDS011;49208;50.874;6.466;2023-07-13T08:10:05;5.40;;;1.98;;
63114;SDS011;49208;50.874;6.466;2023-07-13T08:12:35;6.70;;;2.20;;
63114;SDS011;49208;50.874;6.466;2023-07-13T08:15:01;9.82;;;2.50;;
63114;SDS011;49208;50.874;6.466;2023-07-13T08:17:26;10.55;;;2.45;;
63114;SDS011;49208;50.874;6.466;2023-07-13T08:19:52;8.80;;;2.63;;
63114;SDS011;49208;50.874;6.466;2023-07-13T08:22:17;5.10;;;1.98;;
63114;SDS011;49208;50.874;6.466;2023-07-13T08:24:43;8.43;;;2.25;;
63114;SDS011;49208;50.874;6.466;2023-07-13T08:27:09;4.45;;;1.90;;
63114;SDS011;49208;50.874;6.466;2023-07-13T08:29:39;6.63;;;2.00;;
63114;SDS011;49208;50.874;6.466;2023-07-13T08:32:05;7.10;;;2.20;;
63114;SDS011;49208;50.874;6.466;2023-07-13T08:34:34;6.95;;;2.28;;
63114;SDS011;49208;50.874;6.466;2023-07-13T08:36:59;6.50;;;2.10;;
63114;SDS011;49208;50.874;6.466;2023-07-13T08:39:25;7.68;;;2.15;;
63114;SDS011;49208;50.874;6.466;2023-07-13T08:41:54;5.25;;;2.22;;
63114;SDS011;49208;50.874;6.466;2023-07-13T08:47:26;6.82;;;2.38;;
63114;SDS011;49208;50.874;6.466;2023-07-13T08:49:56;6.22;;;1.60;;
63114;SDS011;49208;50.874;6.466;2023-07-13T08:52:31;6.43;;;1.93;;
63114;SDS011;49208;50.874;6.466;2023-07-13T08:55:43;5.80;;;1.50;;
63114;SDS011;49208;50.874;6.466;2023-07-13T08:58:12;6.97;;;1.95;;
63114;SDS011;49208;50.874;6.466;2023-07-13T09:00:52;7.38;;;2.08;;
63114;SDS011;49208;50.874;6.466;2023-07-13T09:03:40;6.03;;;1.77;;
63114;SDS011;49208;50.874;6.466;2023-07-13T09:06:18;6.85;;;2.30;;
63114;SDS011;49208;50.874;6.466;2023-07-13T09:09:05;6.43;;;2.10;;
63114;SDS011;49208;50.874;6.466;2023-07-13T09:11:56;8.40;;;2.10;;
63114;SDS011;49208;50.874;6.466;2023-07-13T09:17:19;7.57;;;1.92;;
63114;SDS011;49208;50.874;6.466;2023-07-13T09:19:50;2.58;;;1.00;;
63114;SDS011;49208;50.874;6.466;2023-07-13T09:22:22;8.43;;;1.70;;
63114;SDS011;49208;50.874;6.466;2023-07-13T09:25:00;5.38;;;1.50;;
63114;SDS011;49208;50.874;6.466;2023-07-13T09:27:33;4.20;;;1.60;;
63114;SDS011;49208;50.874;6.466;2023-07-13T09:32:39;7.03;;;1.80;;
63114;SDS011;49208;50.874;6.466;2023-07-13T09:35:15;6.00;;;1.85;;
63114;SDS011;49208;50.874;6.466;2023-07-13T09:37:44;6.35;;;1.70;;
63114;SDS011;49208;50.874;6.466;2023-07-13T09:40:11;6.18;;;1.70;;
63114;SDS011;49208;50.874;6.466;2023-07-13T09:42:45;6.05;;;1.63;;
63114;SDS011;49208;50.874;6.466;2023-07-13T09:45:11;4.35;;;1.60;;
63114;SDS011;49208;50.874;6.466;2023-07-13T09:47:51;6.40;;;1.80;;
63114;SDS011;49208;50.874;6.466;2023-07-13T09:50:28;6.60;;;1.60;;
63114;SDS011;49208;50.874;6.466;2023-07-13T09:52:54;3.10;;;1.43;;
63114;SDS011;49208;50.874;6.466;2023-07-13T10:00:26;4.53;;;1.77;;
63114;SDS011;49208;50.874;6.466;2023-07-13T10:03:04;4.07;;;1.83;;
63114;SDS011;49208;50.874;6.466;2023-07-13T10:05:51;6.03;;;1.70;;
63114;SDS011;49208;50.874;6.466;2023-07-13T10:10:44;6.05;;;1.88;;
63114;SDS011;49208;50.874;6.466;2023-07-13T10:13:23;11.20;;;1.80;;
63114;SDS011;49208;50.874;6.466;2023-07-13T10:15:51;3.65;;;1.73;;
63114;SDS011;49208;50.874;6.466;2023-07-13T10:18:17;5.23;;;1.47;;
63114;SDS011;49208;50.874;6.466;2023-07-13T10:20:43;4.10;;;1.60;;
63114;SDS011;49208;50.874;6.466;2023-07-13T10:23:11;7.00;;;1.98;;
63114;SDS011;49208;50.874;6.466;2023-07-13T10:25:46;4.97;;;1.52;;
63114;SDS011;49208;50.874;6.466;2023-07-13T10:28:27;4.75;;;1.60;;
63114;SDS011;49208;50.874;6.466;2023-07-13T10:30:56;5.90;;;1.80;;
63114;SDS011;49208;50.874;6.466;2023-07-13T10:33:25;6.53;;;1.98;;
63114;SDS011;49208;50.874;6.466;2023-07-13T10:35:53;5.25;;;1.70;;
63114;SDS011;49208;50.874;6.466;2023-07-13T10:38:26;5.35;;;1.95;;
63114;SDS011;49208;50.874;6.466;2023-07-13T10:43:45;5.30;;;1.58;;
63114;SDS011;49208;50.874;6.466;2023-07-13T10:46:15;6.88;;;1.60;;
63114;SDS011;49208;50.874;6.466;2023-07-13T10:48:43;4.20;;;1.58;;
63114;SDS011;49208;50.874;6.466;2023-07-13T10:51:13;8.55;;;1.85;;
63114;SDS011;49208;50.874;6.466;2023-07-13T10:53:40;4.97;;;1.63;;
63114;SDS011;49208;50.874;6.466;2023-07-13T10:58:50;7.03;;;2.33;;
63114;SDS011;49208;50.874;6.466;2023-07-13T11:01:40;3.72;;;1.40;;
63114;SDS011;49208;50.874;6.466;2023-07-13T11:04:17;5.57;;;1.98;;
63114;SDS011;49208;50.874;6.466;2023-07-13T11:06:45;5.75;;;1.48;;
63114;SDS011;49208;50.874;6.466;2023-07-13T11:19:53;4.60;;;1.30;;
63114;SDS011;49208;50.874;6.466;2023-07-13T11:22:41;7.20;;;1.35;;
63114;SDS011;49208;50.874;6.466;2023-07-13T11:28:04;5.78;;;1.67;;
63114;SDS011;49208;50.874;6.466;2023-07-13T11:30:37;7.43;;;1.63;;
63114;SDS011;49208;50.874;6.466;2023-07-13T11:33:17;5.25;;;1.58;;
63114;SDS011;49208;50.874;6.466;2023-07-13T11:35:53;7.05;;;1.90;;
63114;SDS011;49208;50.874;6.466;2023-07-13T11:38:35;6.60;;;1.70;;
63114;SDS011;49208;50.874;6.466;2023-07-13T11:41:04;6.20;;;1.80;;
63114;SDS011;49208;50.874;6.466;2023-07-13T11:43:52;5.43;;;1.65;;
63114;SDS011;49208;50.874;6.466;2023-07-13T11:46:25;6.25;;;1.77;;
63114;SDS011;49208;50.874;6.466;2023-07-13T11:48:52;7.53;;;1.80;;
63114;SDS011;49208;50.874;6.466;2023-07-13T11:51:26;4.30;;;1.30;;
63114;SDS011;49208;50.874;6.466;2023-07-13T11:53:56;6.63;;;1.58;;
63114;SDS011;49208;50.874;6.466;2023-07-13T11:56:26;7.15;;;1.45;;
63114;SDS011;49208;50.874;6.466;2023-07-13T11:58:52;5.28;;;1.77;;
63114;SDS011;49208;50.874;6.466;2023-07-13T12:01:22;6.35;;;2.28;;
63114;SDS011;49208;50.874;6.466;2023-07-13T12:03:50;11.82;;;1.98;;
63114;SDS011;49208;50.874;6.466;2023-07-13T12:06:26;5.70;;;2.03;;
63114;SDS011;49208;50.874;6.466;2023-07-13T12:08:58;5.13;;;1.55;;
63114;SDS011;49208;50.874;6.466;2023-07-13T12:11:28;3.55;;;1.27;;
63114;SDS011;49208;50.874;6.466;2023-07-13T12:13:54;5.00;;;1.40;;
63114;SDS011;49208;50.874;6.466;2023-07-13T12:18:54;3.85;;;1.50;;
63114;SDS011;49208;50.874;6.466;2023-07-13T12:21:22;4.20;;;1.73;;
63114;SDS011;49208;50.874;6.466;2023-07-13T12:23:53;7.68;;;1.63;;
63114;SDS011;49208;50.874;6.466;2023-07-13T12:26:18;5.23;;;1.60;;
63114;SDS011;49208;50.874;6.466;2023-07-13T12:28:49;5.47;;;1.60;;
63114;SDS011;49208;50.874;6.466;2023-07-13T12:31:24;6.93;;;1.60;;
63114;SDS011;49208;50.874;6.466;2023-07-13T12:33:56;5.00;;;1.42;;
63114;SDS011;49208;50.874;6.466;2023-07-13T12:36:22;3.55;;;1.52;;
63114;SDS011;49208;50.874;6.466;2023-07-13T12:38:48;4.20;;;1.40;;
63114;SDS011;49208;50.874;6.466;2023-07-13T12:41:14;5.73;;;1.83;;
63114;SDS011;49208;50.874;6.466;2023-07-13T12:43:40;5.53;;;1.40;;
63114;SDS011;49208;50.874;6.466;2023-07-13T12:46:23;4.20;;;1.70;;
63114;SDS011;49208;50.874;6.466;2023-07-13T12:48:52;4.30;;;1.20;;
63114;SDS011;49208;50.874;6.466;2023-07-13T12:51:21;4.82;;;1.20;;
63114;SDS011;49208;50.874;6.466;2023-07-13T12:53:50;6.57;;;1.17;;
63114;SDS011;49208;50.874;6.466;2023-07-13T12:56:23;4.65;;;1.73;;
63114;SDS011;49208;50.874;6.466;2023-07-13T12:58:56;4.72;;;1.33;;
63114;SDS011;49208;50.874;6.466;2023-07-13T13:01:26;4.22;;;1.38;;
63114;SDS011;49208;50.874;6.466;2023-07-13T13:03:53;7.65;;;1.67;;
63114;SDS011;49208;50.874;6.466;2023-07-13T13:08:48;4.13;;;1.38;;
63114;SDS011;49208;50.874;6.466;2023-07-13T13:11:16;4.47;;;1.40;;
63114;SDS011;49208;50.874;6.466;2023-07-13T13:13:42;4.00;;;1.33;;
63114;SDS011;49208;50.874;6.466;2023-07-13T13:16:51;4.93;;;1.50;;
63114;SDS011;49208;50.874;6.466;2023-07-13T13:18:59;5.40;;;1.35;;
63114;SDS011;49208;50.874;6.466;2023-07-13T13:21:35;7.78;;;1.75;;
63114;SDS011;49208;50.874;6.466;2023-07-13T13:24:00;6.27;;;1.40;;
63114;SDS011;49208;50.874;6.466;2023-07-13T13:26:26;4.33;;;1.23;;
63114;SDS011;49208;50.874;6.466;2023-07-13T13:28:51;5.57;;;1.33;;
63114;SDS011;49208;50.874;6.466;2023-07-13T13:31:17;4.40;;;1.40;;
63114;SDS011;49208;50.874;6.466;2023-07-13T13:33:43;5.47;;;1.20;;
63114;SDS011;49208;50.874;6.466;2023-07-13T13:36:20;4.35;;;1.20;;
63114;SDS011;49208;50.874;6.466;2023-07-13T13:38:48;3.67;;;1.20;;
63114;SDS011;49208;50.874;6.466;2023-07-13T13:43:40;4.07;;;1.30;;
63114;SDS011;49208;50.874;6.466;2023-07-13T13:48:38;4.60;;;1.23;;
63114;SDS011;49208;50.874;6.466;2023-07-13T13:51:26;4.57;;;1.13;;
63114;SDS011;49208;50.874;6.466;2023-07-13T13:53:51;3.38;;;1.30;;
63114;SDS011;49208;50.874;6.466;2023-07-13T13:56:18;3.63;;;1.33;;
63114;SDS011;49208;50.874;6.466;2023-07-13T13:58:45;5.82;;;1.40;;
63114;SDS011;49208;50.874;6.466;2023-07-13T14:01:12;4.33;;;1.63;;
63114;SDS011;49208;50.874;6.466;2023-07-13T14:03:49;5.82;;;1.50;;
63114;SDS011;49208;50.874;6.466;2023-07-13T14:06:16;5.60;;;1.55;;
63114;SDS011;49208;50.874;6.466;2023-07-13T14:08:42;3.67;;;1.20;;
63114;SDS011;49208;50.874;6.466;2023-07-13T14:11:11;6.47;;;1.60;;
63114;SDS011;49208;50.874;6.466;2023-07-13T14:13:40;5.50;;;1.40;;
63114;SDS011;49208;50.874;6.466;2023-07-13T14:16:14;6.15;;;1.63;;
63114;SDS011;49208;50.874;6.466;2023-07-13T14:18:45;6.45;;;1.52;;
63114;SDS011;49208;50.874;6.466;2023-07-13T14:21:15;3.10;;;1.20;;
63114;SDS011;49208;50.874;6.466;2023-07-13T14:23:43;3.63;;;1.30;;
63114;SDS011;49208;50.874;6.466;2023-07-13T14:26:11;4.03;;;1.20;;
63114;SDS011;49208;50.874;6.466;2023-07-13T14:28:41;4.30;;;1.40;;
63114;SDS011;49208;50.874;6.466;2023-07-13T14:31:09;4.32;;;1.50;;
63114;SDS011;49208;50.874;6.466;2023-07-13T14:33:35;4.65;;;1.73;;
63114;SDS011;49208;50.874;6.466;2023-07-13T14:36:02;4.93;;;1.70;;
63114;SDS011;49208;50.874;6.466;2023-07-13T14:40:53;3.10;;;1.27;;
63114;SDS011;49208;50.874;6.466;2023-07-13T14:43:18;4.23;;;1.50;;
63114;SDS011;49208;50.874;6.466;2023-07-13T14:45:45;3.30;;;1.23;;
63114;SDS011;49208;50.874;6.466;2023-07-13T14:48:21;4.55;;;1.48;;
63114;SDS011;49208;50.874;6.466;2023-07-13T14:50:57;4.75;;;1.35;;
63114;SDS011;49208;50.874;6.466;2023-07-13T14:53:25;7.00;;;1.48;;
63114;SDS011;49208;50.874;6.466;2023-07-13T14:55:54;7.25;;;1.52;;
63114;SDS011;49208;50.874;6.466;2023-07-13T14:58:20;3.80;;;1.17;;
63114;SDS011;49208;50.874;6.466;2023-07-13T15:00:45;5.17;;;1.23;;
63114;SDS011;49208;50.874;6.466;2023-07-13T15:03:21;6.60;;;1.40;;
63114;SDS011;49208;50.874;6.466;2023-07-13T15:05:49;5.13;;;1.50;;
63114;SDS011;49208;50.874;6.466;2023-07-13T15:08:16;4.03;;;1.33;;
63114;SDS011;49208;50.874;6.466;2023-07-13T15:10:41;4.05;;;1.13;;
63114;SDS011;49208;50.874;6.466;2023-07-13T15:13:17;3.83;;;1.20;;
63114;SDS011;49208;50.874;6.466;2023-07-13T15:15:48;6.32;;;1.30;;
63114;SDS011;49208;50.874;6.466;2023-07-13T15:18:15;4.55;;;1.95;;
63114;SDS011;49208;50.874;6.466;2023-07-13T15:20:43;4.00;;;1.35;;
63114;SDS011;49208;50.874;6.466;2023-07-13T15:23:10;6.53;;;1.75;;
63114;SDS011;49208;50.874;6.466;2023-07-13T15:25:36;3.25;;;1.48;;
63114;SDS011;49208;50.874;6.466;2023-07-13T15:28:02;5.25;;;1.55;;
63114;SDS011;49208;50.874;6.466;2023-07-13T15:30:31;5.80;;;1.65;;
63114;SDS011;49208;50.874;6.466;2023-07-13T15:33:12;6.77;;;1.77;;
63114;SDS011;49208;50.874;6.466;2023-07-13T15:35:42;2.97;;;1.38;;
63114;SDS011;49208;50.874;6.466;2023-07-13T15:38:22;5.18;;;1.48;;
63114;SDS011;49208;50.874;6.466;2023-07-13T15:40:50;4.50;;;1.75;;
63114;SDS011;49208;50.874;6.466;2023-07-13T15:43:16;4.67;;;1.80;;
63114;SDS011;49208;50.874;6.466;2023-07-13T15:45:43;3.53;;;1.30;;
63114;SDS011;49208;50.874;6.466;2023-07-13T15:48:17;4.80;;;1.40;;
63114;SDS011;49208;50.874;6.466;2023-07-13T15:50:49;5.25;;;1.40;;
63114;SDS011;49208;50.874;6.466;2023-07-13T15:53:18;4.38;;;1.55;;
63114;SDS011;49208;50.874;6.466;2023-07-13T15:55:47;3.10;;;1.30;;
63114;SDS011;49208;50.874;6.466;2023-07-13T15:58:14;5.10;;;1.80;;
63114;SDS011;49208;50.874;6.466;2023-07-13T16:00:40;4.32;;;1.60;;
63114;SDS011;49208;50.874;6.466;2023-07-13T16:03:05;3.60;;;1.60;;
63114;SDS011;49208;50.874;6.466;2023-07-13T16:05:31;4.50;;;1.73;;
63114;SDS011;49208;50.874;6.466;2023-07-13T16:07:56;3.38;;;1.50;;
63114;SDS011;49208;50.874;6.466;2023-07-13T16:10:41;3.83;;;1.50;;
63114;SDS011;49208;50.874;6.466;2023-07-13T16:13:15;4.10;;;1.70;;
63114;SDS011;49208;50.874;6.466;2023-07-13T16:15:44;3.90;;;1.77;;
63114;SDS011;49208;50.874;6.466;2023-07-13T16:18:13;4.82;;;1.70;;
63114;SDS011;49208;50.874;6.466;2023-07-13T16:20:45;5.78;;;1.40;;
63114;SDS011;49208;50.874;6.466;2023-07-13T16:23:13;5.78;;;2.25;;
63114;SDS011;49208;50.874;6.466;2023-07-13T16:25:40;3.92;;;1.55;;
63114;SDS011;49208;50.874;6.466;2023-07-13T16:28:08;5.82;;;1.70;;
63114;SDS011;49208;50.874;6.466;2023-07-13T16:30:39;4.80;;;2.28;;
63114;SDS011;49208;50.874;6.466;2023-07-13T16:33:05;5.03;;;1.85;;
63114;SDS011;49208;50.874;6.466;2023-07-13T16:35:38;5.10;;;1.80;;
63114;SDS011;49208;50.874;6.466;2023-07-13T16:38:15;5.05;;;1.95;;
63114;SDS011;49208;50.874;6.466;2023-07-13T16:40:43;4.05;;;1.85;;
63114;SDS011;49208;50.874;6.466;2023-07-13T16:43:11;3.35;;;1.75;;
63114;SDS011;49208;50.874;6.466;2023-07-13T16:45:38;5.18;;;1.95;;
63114;SDS011;49208;50.874;6.466;2023-07-13T16:48:18;6.05;;;2.05;;
63114;SDS011;49208;50.874;6.466;2023-07-13T16:50:50;6.68;;;1.60;;
63114;SDS011;49208;50.874;6.466;2023-07-13T16:53:19;3.72;;;1.55;;
63114;SDS011;49208;50.874;6.466;2023-07-13T16:55:47;4.03;;;1.73;;
63114;SDS011;49208;50.874;6.466;2023-07-13T16:58:13;4.97;;;2.33;;
63114;SDS011;49208;50.874;6.466;2023-07-13T17:00:38;3.78;;;1.83;;
63114;SDS011;49208;50.874;6.466;2023-07-13T17:03:05;5.20;;;1.63;;
63114;SDS011;49208;50.874;6.466;2023-07-13T17:05:31;4.18;;;1.50;;
63114;SDS011;49208;50.874;6.466;2023-07-13T17:08:02;6.35;;;2.05;;
63114;SDS011;49208;50.874;6.466;2023-07-13T17:13:04;4.70;;;1.53;;
63114;SDS011;49208;50.874;6.466;2023-07-13T17:15:33;3.88;;;1.52;;
63114;SDS011;49208;50.874;6.466;2023-07-13T17:18:00;4.28;;;1.50;;
63114;SDS011;49208;50.874;6.466;2023-07-13T17:20:30;5.40;;;1.63;;
63114;SDS011;49208;50.874;6.466;2023-07-13T17:23:02;3.65;;;1.50;;
63114;SDS011;49208;50.874;6.466;2023-07-13T17:25:28;5.23;;;1.67;;
63114;SDS011;49208;50.874;6.466;2023-07-13T17:27:55;4.18;;;1.48;;
63114;SDS011;49208;50.874;6.466;2023-07-13T17:30:21;5.05;;;1.75;;
63114;SDS011;49208;50.874;6.466;2023-07-13T17:32:48;5.43;;;1.70;;
63114;SDS011;49208;50.874;6.466;2023-07-13T17:37:58;4.03;;;1.60;;
63114;SDS011;49208;50.874;6.466;2023-07-13T17:40:25;3.97;;;1.50;;
63114;SDS011;49208;50.874;6.466;2023-07-13T17:42:51;4.45;;;1.38;;
63114;SDS011;49208;50.874;6.466;2023-07-13T17:45:23;4.32;;;1.60;;
63114;SDS011;49208;50.874;6.466;2023-07-13T17:47:52;6.72;;;1.88;;
63114;SDS011;49208;50.874;6.466;2023-07-13T17:53:16;4.00;;;1.30;;
63114;SDS011;49208;50.874;6.466;2023-07-13T17:55:43;3.85;;;1.50;;
63114;SDS011;49208;50.874;6.466;2023-07-13T17:58:09;3.60;;;1.92;;
63114;SDS011;49208;50.874;6.466;2023-07-13T18:00:38;5.93;;;2.15;;
63114;SDS011;49208;50.874;6.466;2023-07-13T18:05:38;4.13;;;1.70;;
63114;SDS011;49208;50.874;6.466;2023-07-13T18:08:05;4.75;;;1.40;;
63114;SDS011;49208;50.874;6.466;2023-07-13T18:10:32;6.43;;;1.95;;
63114;SDS011;49208;50.874;6.466;2023-07-13T18:12:59;5.60;;;1.70;;
63114;SDS011;49208;50.874;6.466;2023-07-13T18:15:26;4.13;;;1.75;;
63114;SDS011;49208;50.874;6.466;2023-07-13T18:17:54;4.93;;;1.45;;
63114;SDS011;49208;50.874;6.466;2023-07-13T18:20:20;3.50;;;1.50;;
63114;SDS011;49208;50.874;6.466;2023-07-13T18:22:50;3.47;;;1.50;;
63114;SDS011;49208;50.874;6.466;2023-07-13T18:25:18;4.65;;;1.52;;
63114;SDS011;49208;50.874;6.466;2023-07-13T18:27:45;4.90;;;1.73;;
63114;SDS011;49208;50.874;6.466;2023-07-13T18:30:12;4.32;;;1.60;;
63114;SDS011;49208;50.874;6.466;2023-07-13T18:32:41;4.38;;;2.10;;
63114;SDS011;49208;50.874;6.466;2023-07-13T18:35:17;4.10;;;1.70;;
63114;SDS011;49208;50.874;6.466;2023-07-13T18:37:46;3.72;;;1.60;;
63114;SDS011;49208;50.874;6.466;2023-07-13T18:40:16;4.30;;;1.70;;
63114;SDS011;49208;50.874;6.466;2023-07-13T18:42:44;4.30;;;1.77;;
63114;SDS011;49208;50.874;6.466;2023-07-13T18:45:12;3.30;;;1.58;;
63114;SDS011;49208;50.874;6.466;2023-07-13T18:47:39;4.38;;;1.80;;
63114;SDS011;49208;50.874;6.466;2023-07-13T18:50:20;4.43;;;1.45;;
63114;SDS011;49208;50.874;6.466;2023-07-13T18:52:52;4.40;;;1.60;;
63114;SDS011;49208;50.874;6.466;2023-07-13T18:55:19;6.95;;;2.10;;
63114;SDS011;49208;50.874;6.466;2023-07-13T18:57:46;6.32;;;1.88;;
63114;SDS011;49208;50.874;6.466;2023-07-13T19:00:15;4.38;;;1.70;;
63114;SDS011;49208;50.874;6.466;2023-07-13T19:02:43;6.40;;;1.73;;
63114;SDS011;49208;50.874;6.466;2023-07-13T19:05:13;3.67;;;1.50;;
63114;SDS011;49208;50.874;6.466;2023-07-13T19:07:40;7.30;;;1.73;;
63114;SDS011;49208;50.874;6.466;2023-07-13T19:10:11;3.53;;;1.52;;
63114;SDS011;49208;50.874;6.466;2023-07-13T19:12:39;4.13;;;1.80;;
63114;SDS011;49208;50.874;6.466;2023-07-13T19:15:13;4.27;;;1.77;;
63114;SDS011;49208;50.874;6.466;2023-07-13T19:17:44;4.85;;;1.65;;
63114;SDS011;49208;50.874;6.466;2023-07-13T19:20:13;3.83;;;1.45;;
63114;SDS011;49208;50.874;6.466;2023-07-13T19:22:41;2.63;;;1.33;;
63114;SDS011;49208;50.874;6.466;2023-07-13T19:25:13;3.78;;;1.75;;
63114;SDS011;49208;50.874;6.466;2023-07-13T19:27:40;5.50;;;2.15;;
63114;SDS011;49208;50.874;6.466;2023-07-13T19:30:10;5.25;;;1.75;;
63114;SDS011;49208;50.874;6.466;2023-07-13T19:32:37;6.50;;;2.00;;
63114;SDS011;49208;50.874;6.466;2023-07-13T19:35:04;4.93;;;1.70;;
63114;SDS011;49208;50.874;6.466;2023-07-13T19:39:59;3.83;;;1.55;;
63114;SDS011;49208;50.874;6.466;2023-07-13T19:42:24;3.60;;;1.60;;
63114;SDS011;49208;50.874;6.466;2023-07-13T19:44:53;6.35;;;1.85;;
63114;SDS011;49208;50.874;6.466;2023-07-13T19:47:20;4.50;;;1.90;;
63114;SDS011;49208;50.874;6.466;2023-07-13T19:49:46;4.97;;;1.75;;
63114;SDS011;49208;50.874;6.466;2023-07-13T19:52:22;4.63;;;1.85;;
63114;SDS011;49208;50.874;6.466;2023-07-13T19:54:52;4.47;;;1.70;;
63114;SDS011;49208;50.874;6.466;2023-07-13T19:57:19;6.60;;;2.22;;
63114;SDS011;49208;50.874;6.466;2023-07-13T19:59:46;4.45;;;1.98;;
63114;SDS011;49208;50.874;6.466;2023-07-13T20:02:17;3.22;;;1.60;;
63114;SDS011;49208;50.874;6.466;2023-07-13T20:04:43;5.73;;;1.90;;
63114;SDS011;49208;50.874;6.466;2023-07-13T20:07:18;4.22;;;1.73;;
63114;SDS011;49208;50.874;6.466;2023-07-13T20:09:45;5.25;;;1.80;;
63114;SDS011;49208;50.874;6.466;2023-07-13T20:12:24;5.20;;;2.10;;
63114;SDS011;49208;50.874;6.466;2023-07-13T20:14:51;4.30;;;1.73;;
63114;SDS011;49208;50.874;6.466;2023-07-13T20:19:52;3.70;;;2.13;;
63114;SDS011;49208;50.874;6.466;2023-07-13T20:22:18;5.75;;;2.20;;
63114;SDS011;49208;50.874;6.466;2023-07-13T20:24:43;8.10;;;2.50;;
63114;SDS011;49208;50.874;6.466;2023-07-13T20:27:09;5.43;;;2.08;;
63114;SDS011;49208;50.874;6.466;2023-07-13T20:29:34;6.45;;;2.30;;
63114;SDS011;49208;50.874;6.466;2023-07-13T20:32:00;5.68;;;2.17;;
63114;SDS011;49208;50.874;6.466;2023-07-13T20:34:27;6.15;;;2.28;;
63114;SDS011;49208;50.874;6.466;2023-07-13T20:37:00;8.27;;;2.20;;
63114;SDS011;49208;50.874;6.466;2023-07-13T20:39:25;5.18;;;2.53;;
63114;SDS011;49208;50.874;6.466;2023-07-13T20:41:51;4.97;;;2.38;;
63114;SDS011;49208;50.874;6.466;2023-07-13T20:44:17;5.28;;;2.35;;
63114;SDS011;49208;50.874;6.466;2023-07-13T20:46:43;4.65;;;2.20;;
63114;SDS011;49208;50.874;6.466;2023-07-13T20:49:09;5.18;;;2.33;;
63114;SDS011;49208;50.874;6.466;2023-07-13T20:51:36;6.05;;;2.45;;
63114;SDS011;49208;50.874;6.466;2023-07-13T20:56:29;5.80;;;2.20;;
63114;SDS011;49208;50.874;6.466;2023-07-13T20:58:54;4.88;;;2.15;;
63114;SDS011;49208;50.874;6.466;2023-07-13T21:01:27;5.32;;;1.95;;
63114;SDS011;49208;50.874;6.466;2023-07-13T21:06:24;5.40;;;2.22;;
63114;SDS011;49208;50.874;6.466;2023-07-13T21:08:54;5.65;;;2.33;;
63114;SDS011;49208;50.874;6.466;2023-07-13T21:11:20;5.93;;;2.20;;
63114;SDS011;49208;50.874;6.466;2023-07-13T21:13:45;5.20;;;2.20;;
63114;SDS011;49208;50.874;6.466;2023-07-13T21:16:16;6.32;;;2.20;;
63114;SDS011;49208;50.874;6.466;2023-07-13T21:18:44;4.05;;;1.90;;
63114;SDS011;49208;50.874;6.466;2023-07-13T21:21:11;4.20;;;1.90;;
63114;SDS011;49208;50.874;6.466;2023-07-13T21:23:38;5.95;;;2.13;;
63114;SDS011;49208;50.874;6.466;2023-07-13T21:26:04;4.88;;;2.03;;
63114;SDS011;49208;50.874;6.466;2023-07-13T21:28:37;7.90;;;2.55;;
63114;SDS011;49208;50.874;6.466;2023-07-13T21:31:05;5.75;;;2.30;;
63114;SDS011;49208;50.874;6.466;2023-07-13T21:33:33;5.13;;;2.30;;
63114;SDS011;49208;50.874;6.466;2023-07-13T21:36:01;5.82;;;2.20;;
63114;SDS011;49208;50.874;6.466;2023-07-13T21:38:29;5.13;;;2.38;;
63114;SDS011;49208;50.874;6.466;2023-07-13T21:40:58;5.43;;;2.45;;
63114;SDS011;49208;50.874;6.466;2023-07-13T21:43:25;4.13;;;2.03;;
63114;SDS011;49208;50.874;6.466;2023-07-13T21:45:51;4.43;;;1.85;;
63114;SDS011;49208;50.874;6.466;2023-07-13T21:48:17;3.72;;;2.10;;
63114;SDS011;49208;50.874;6.466;2023-07-13T21:50:45;5.35;;;2.70;;
63114;SDS011;49208;50.874;6.466;2023-07-13T21:53:22;6.22;;;2.42;;
63114;SDS011;49208;50.874;6.466;2023-07-13T21:55:55;4.75;;;2.00;;
63114;SDS011;49208;50.874;6.466;2023-07-13T21:58:26;5.32;;;2.20;;
